createdAt,value
2022-08-03T00:01:37.014Z,2.73
2022-08-03T00:04:39.822Z,2.37
2022-08-03T00:07:42.406Z,2.78
2022-08-03T00:10:45.740Z,3.10
2022-08-03T00:13:48.397Z,2.30
2022-08-03T00:16:51.212Z,2.40
2022-08-03T00:19:53.737Z,2.60
2022-08-03T00:22:56.555Z,2.83
2022-08-03T00:25:59.102Z,2.90
2022-08-03T00:29:02.502Z,2.97
2022-08-03T00:32:05.269Z,2.40
2022-08-03T00:35:09.928Z,2.50
2022-08-03T00:38:15.034Z,2.15
2022-08-03T00:41:17.779Z,2.70
2022-08-03T00:44:20.540Z,2.30
2022-08-03T00:47:23.358Z,2.57
2022-08-03T00:50:27.179Z,2.73
2022-08-03T00:53:30.233Z,2.78
2022-08-03T00:56:32.777Z,2.72
2022-08-03T00:59:35.724Z,2.60
2022-08-03T01:02:39.465Z,3.00
2022-08-03T01:05:52.163Z,2.57
2022-08-03T01:09:04.086Z,2.72
2022-08-03T01:12:08.875Z,2.83
2022-08-03T01:15:32.272Z,2.35
2022-08-03T01:18:52.042Z,2.83
2022-08-03T01:22:16.843Z,2.23
2022-08-03T01:25:19.825Z,2.37
2022-08-03T01:29:04.931Z,3.08
2022-08-03T01:32:58.245Z,2.90
2022-08-03T01:35:42.325Z,2.63
2022-08-03T01:38:50.474Z,3.03
2022-08-03T01:41:59.363Z,3.05
2022-08-03T01:45:03.921Z,2.90
2022-08-03T01:48:07.692Z,2.60
2022-08-03T01:51:11.213Z,2.80
2022-08-03T01:54:14.822Z,3.00
2022-08-03T01:57:19.251Z,3.10
2022-08-03T02:00:24.237Z,2.67
2022-08-03T02:03:29.088Z,2.85
2022-08-03T02:07:00.696Z,3.00
2022-08-03T02:09:58.538Z,3.10
2022-08-03T02:13:01.783Z,3.03
2022-08-03T02:16:05.388Z,3.22
2022-08-03T02:19:08.748Z,3.15
2022-08-03T02:22:13.289Z,2.97
2022-08-03T02:25:16.564Z,3.00
2022-08-03T02:28:21.157Z,2.75
2022-08-03T02:31:27.399Z,3.70
2022-08-03T02:34:31.847Z,2.90
2022-08-03T02:37:42.992Z,3.60
2022-08-03T02:40:55.684Z,3.40
2022-08-03T02:44:07.170Z,3.62
2022-08-03T02:47:12.509Z,3.05
2022-08-03T02:50:17.563Z,3.70
2022-08-03T02:53:21.749Z,3.70
2022-08-03T02:56:25.911Z,2.90
2022-08-03T02:59:31.272Z,2.92
2022-08-03T03:02:35.106Z,3.92
2022-08-03T03:05:54.865Z,3.70
2022-08-03T03:09:00.580Z,3.30
2022-08-03T03:12:04.482Z,3.07
2022-08-03T03:15:07.454Z,3.30
2022-08-03T03:18:10.950Z,3.60
2022-08-03T03:21:16.202Z,3.30
2022-08-03T03:24:21.320Z,3.03
2022-08-03T03:27:24.090Z,3.40
2022-08-03T03:30:27.943Z,3.25
2022-08-03T03:33:30.545Z,3.53
2022-08-03T03:36:33.331Z,3.28
2022-08-03T03:39:36.500Z,3.47
2022-08-03T03:42:39.422Z,3.70
2022-08-03T03:45:44.967Z,3.90
2022-08-03T03:48:48.262Z,3.85
2022-08-03T03:51:56.884Z,3.80
2022-08-03T03:55:01.335Z,3.57
2022-08-03T03:58:04.768Z,3.43
2022-08-03T04:01:08.784Z,3.92
2022-08-03T04:04:30.244Z,3.70
2022-08-03T04:08:06.705Z,3.20
2022-08-03T04:11:31.992Z,3.50
2022-08-03T04:14:36.207Z,5.10
2022-08-03T04:17:40.504Z,4.57
2022-08-03T04:20:46.280Z,4.62
2022-08-03T04:23:53.831Z,4.68
2022-08-03T04:26:57.554Z,4.87
2022-08-03T04:30:03.035Z,4.97
2022-08-03T04:33:06.485Z,5.47
2022-08-03T04:36:10.000Z,5.10
2022-08-03T04:39:20.395Z,4.55
2022-08-03T04:42:25.416Z,4.80
2022-08-03T04:45:29.139Z,4.93
2022-08-03T04:48:32.303Z,4.87
2022-08-03T04:51:34.966Z,4.70
2022-08-03T04:54:48.748Z,5.15
2022-08-03T04:57:53.483Z,5.30
2022-08-03T05:00:56.229Z,5.23
2022-08-03T05:03:58.857Z,5.10
2022-08-03T05:07:11.701Z,6.10
2022-08-03T05:10:16.667Z,5.22
2022-08-03T05:13:19.603Z,5.60
2022-08-03T05:16:22.097Z,6.03
2022-08-03T05:19:25.208Z,5.12
2022-08-03T05:22:27.669Z,5.62
2022-08-03T05:25:30.792Z,5.40
2022-08-03T05:28:33.289Z,5.50
2022-08-03T05:31:36.059Z,5.23
2022-08-03T05:34:39.046Z,5.80
2022-08-03T05:37:42.311Z,4.95
2022-08-03T05:41:21.961Z,5.68
2022-08-03T05:44:20.762Z,5.75
2022-08-03T05:47:23.213Z,5.50
2022-08-03T05:50:26.098Z,5.95
2022-08-03T05:53:28.583Z,5.85
2022-08-03T05:56:31.355Z,5.28
2022-08-03T05:59:38.373Z,5.50
2022-08-03T06:02:42.180Z,5.40
2022-08-03T06:05:55.574Z,5.65
2022-08-03T06:09:02.941Z,6.62
2022-08-03T06:12:05.807Z,5.60
2022-08-03T06:15:11.242Z,5.30
2022-08-03T06:18:14.553Z,5.40
2022-08-03T06:21:17.066Z,5.35
2022-08-03T06:24:19.774Z,5.70
2022-08-03T06:27:36.602Z,5.32
2022-08-03T06:30:41.574Z,5.68
2022-08-03T06:34:30.968Z,5.27
2022-08-03T06:37:06.771Z,5.07
2022-08-03T06:40:10.578Z,5.97
2022-08-03T06:43:16.821Z,5.22
2022-08-03T06:46:19.843Z,5.20
2022-08-03T06:49:22.700Z,5.40
2022-08-03T06:52:37.682Z,4.97
2022-08-03T06:55:42.483Z,5.28
2022-08-03T06:58:47.036Z,5.00
2022-08-03T07:01:49.932Z,5.70
2022-08-03T07:04:52.580Z,5.20
2022-08-03T07:07:57.205Z,5.12
2022-08-03T07:10:59.721Z,5.40
2022-08-03T07:14:02.617Z,4.90
2022-08-03T07:17:11.617Z,5.82
2022-08-03T07:20:15.363Z,4.90
2022-08-03T07:23:19.098Z,5.43
2022-08-03T07:26:22.363Z,4.87
2022-08-03T07:29:25.205Z,4.93
2022-08-03T07:32:31.108Z,4.80
2022-08-03T07:35:33.724Z,4.47
2022-08-03T07:38:37.178Z,4.47
2022-08-03T07:41:39.693Z,3.87
2022-08-03T07:44:45.347Z,4.20
2022-08-03T07:47:53.397Z,3.87
2022-08-03T07:50:56.758Z,3.33
2022-08-03T07:54:00.990Z,3.50
2022-08-03T07:57:04.036Z,3.70
2022-08-03T08:00:12.518Z,3.80
2022-08-03T08:03:16.018Z,3.87
2022-08-03T08:06:18.646Z,3.43
2022-08-03T08:09:21.455Z,3.75
2022-08-03T08:12:24.004Z,3.42
2022-08-03T08:15:26.780Z,3.45
2022-08-03T08:18:32.380Z,3.30
2022-08-03T08:22:01.776Z,3.53
2022-08-03T08:25:04.423Z,2.72
2022-08-03T08:28:31.804Z,3.03
2022-08-03T08:31:29.767Z,3.40
2022-08-03T08:34:32.542Z,3.12
2022-08-03T08:37:35.700Z,2.87
2022-08-03T08:40:39.387Z,3.17
2022-08-03T08:43:42.752Z,3.42
2022-08-03T08:46:45.713Z,3.15
2022-08-03T08:50:03.999Z,2.67
2022-08-03T08:53:18.943Z,3.63
2022-08-03T08:56:26.116Z,3.62
2022-08-03T08:59:47.797Z,3.00
2022-08-03T09:02:51.918Z,3.20
2022-08-03T09:05:56.074Z,3.53
2022-08-03T09:09:02.215Z,3.33
2022-08-03T09:12:37.169Z,3.42
2022-08-03T09:15:31.429Z,3.70
2022-08-03T09:18:34.299Z,3.50
2022-08-03T09:21:36.837Z,3.90
2022-08-03T09:25:21.560Z,3.10
2022-08-03T09:28:52.805Z,3.40
2022-08-03T09:31:46.458Z,2.72
2022-08-03T09:34:50.503Z,3.33
2022-08-03T09:38:14.323Z,3.12
2022-08-03T09:41:20.037Z,2.87
2022-08-03T09:44:34.362Z,2.87
2022-08-03T09:47:36.969Z,2.83
2022-08-03T09:51:13.293Z,2.92
2022-08-03T09:54:30.296Z,3.47
2022-08-03T09:57:33.180Z,2.80
2022-08-03T10:00:54.084Z,2.35
2022-08-03T10:04:03.064Z,3.03
2022-08-03T10:07:09.699Z,2.60
2022-08-03T10:10:30.193Z,2.60
2022-08-03T10:13:34.612Z,2.30
2022-08-03T10:16:39.454Z,2.33
2022-08-03T10:19:42.075Z,2.47
2022-08-03T10:22:44.873Z,2.10
2022-08-03T10:25:48.528Z,2.27
2022-08-03T10:28:53.352Z,1.90
2022-08-03T10:31:58.987Z,2.00
2022-08-03T10:35:20.044Z,2.25
2022-08-03T10:38:32.690Z,2.17
2022-08-03T10:41:38.525Z,2.40
2022-08-03T10:44:41.420Z,1.90
2022-08-03T10:47:44.495Z,1.90
2022-08-03T10:50:48.869Z,2.30
2022-08-03T10:53:54.553Z,2.12
2022-08-03T10:57:17.003Z,2.17
2022-08-03T11:00:25.795Z,2.10
2022-08-03T11:03:35.464Z,2.30
2022-08-03T11:06:38.303Z,2.33
2022-08-03T11:09:42.204Z,2.12
2022-08-03T11:12:45.471Z,1.87
2022-08-03T11:15:50.671Z,2.63
2022-08-03T11:19:01.044Z,2.10
2022-08-03T11:22:05.359Z,1.85
2022-08-03T11:25:08.355Z,2.10
2022-08-03T11:28:30.925Z,2.00
2022-08-03T11:31:51.435Z,1.77
2022-08-03T11:35:12.120Z,1.77
2022-08-03T11:38:15.082Z,2.10
2022-08-03T11:41:33.695Z,1.95
2022-08-03T11:44:47.816Z,2.15
2022-08-03T11:47:58.635Z,1.73
2022-08-03T11:51:02.542Z,1.73
2022-08-03T11:54:07.404Z,1.65
2022-08-03T11:57:10.362Z,1.65
2022-08-03T12:00:23.791Z,1.70
2022-08-03T12:03:33.213Z,1.33
2022-08-03T12:06:55.292Z,1.25
2022-08-03T12:10:12.422Z,1.62
2022-08-03T12:14:45.213Z,1.65
2022-08-03T12:16:38.679Z,1.90
2022-08-03T12:19:44.177Z,1.67
2022-08-03T12:22:46.986Z,2.20
2022-08-03T12:25:49.715Z,2.72
2022-08-03T12:28:52.658Z,2.10
2022-08-03T12:31:56.097Z,2.35
2022-08-03T12:35:01.563Z,2.10
2022-08-03T12:38:04.851Z,2.17
2022-08-03T12:41:16.727Z,2.10
2022-08-03T12:44:32.706Z,1.90
2022-08-03T12:47:59.979Z,1.95
2022-08-03T12:51:11.749Z,1.80
2022-08-03T12:54:24.247Z,1.95
2022-08-03T12:57:41.437Z,1.60
2022-08-03T13:00:55.626Z,1.65
2022-08-03T13:03:58.210Z,1.85
2022-08-03T13:07:05.503Z,1.90
2022-08-03T13:10:10.141Z,1.75
2022-08-03T13:13:13.256Z,2.05
2022-08-03T13:16:19.336Z,1.60
2022-08-03T13:19:22.406Z,1.45
2022-08-03T13:22:27.414Z,1.83
2022-08-03T13:25:30.175Z,1.87
2022-08-03T13:28:32.755Z,1.70
2022-08-03T13:31:35.627Z,1.60
2022-08-03T13:34:53.179Z,1.62
2022-08-03T13:37:56.162Z,2.03
2022-08-03T13:40:59.882Z,1.40
2022-08-03T13:44:26.656Z,1.30
2022-08-03T13:47:25.383Z,1.85
2022-08-03T13:50:28.407Z,1.58
2022-08-03T13:53:31.092Z,1.80
2022-08-03T13:56:34.032Z,1.33
2022-08-03T13:59:36.670Z,1.58
2022-08-03T14:02:39.567Z,1.52
2022-08-03T14:05:45.626Z,1.90
2022-08-03T14:08:48.363Z,1.60
2022-08-03T14:12:04.050Z,1.55
2022-08-03T14:15:13.178Z,1.62
2022-08-03T14:18:27.520Z,1.70
2022-08-03T14:21:31.438Z,1.67
2022-08-03T14:24:34.225Z,1.40
2022-08-03T14:27:37.221Z,1.77
2022-08-03T14:30:40.317Z,1.50
2022-08-03T14:33:42.863Z,1.77
2022-08-03T14:36:47.269Z,1.52
2022-08-03T14:40:05.835Z,1.50
2022-08-03T14:43:08.936Z,1.85
2022-08-03T14:46:11.472Z,2.17
2022-08-03T14:50:31.517Z,1.67
2022-08-03T14:52:36.788Z,1.77
2022-08-03T14:55:49.837Z,1.93
2022-08-03T14:58:53.881Z,1.77
2022-08-03T15:02:05.622Z,1.87
2022-08-03T15:05:12.797Z,1.95
2022-08-03T15:08:15.845Z,1.98
2022-08-03T15:11:18.358Z,2.00
2022-08-03T15:14:28.320Z,1.87
2022-08-03T15:17:34.952Z,1.87
2022-08-03T15:20:44.885Z,1.85
2022-08-03T15:23:48.656Z,2.15
2022-08-03T15:26:52.412Z,2.20
2022-08-03T15:30:07.315Z,2.33
2022-08-03T15:33:13.242Z,2.25
2022-08-03T15:36:16.889Z,2.08
2022-08-03T15:39:19.771Z,2.47
2022-08-03T15:42:22.322Z,2.40
2022-08-03T15:45:28.521Z,2.30
2022-08-03T15:48:39.239Z,2.50
2022-08-03T15:51:42.051Z,2.28
2022-08-03T15:54:44.640Z,2.40
2022-08-03T15:59:09.647Z,2.07
2022-08-03T16:01:10.807Z,2.20
2022-08-03T16:04:13.647Z,2.55
2022-08-03T16:07:16.384Z,2.42
2022-08-03T16:10:20.612Z,2.20
2022-08-03T16:13:23.276Z,2.27
2022-08-03T16:16:46.114Z,2.20
2022-08-03T16:19:49.317Z,2.20
2022-08-03T16:22:52.400Z,2.50
2022-08-03T16:25:54.913Z,2.72
2022-08-03T16:28:57.794Z,2.00
2022-08-03T16:32:09.317Z,2.37
2022-08-03T16:35:19.407Z,2.42
2022-08-03T16:38:22.478Z,1.98
2022-08-03T16:41:25.286Z,2.70
2022-08-03T16:44:49.902Z,1.90
2022-08-03T16:48:05.993Z,2.08
2022-08-03T16:51:08.690Z,2.45
2022-08-03T16:54:12.415Z,2.37
2022-08-03T16:57:29.746Z,2.17
2022-08-03T17:00:41.556Z,2.40
2022-08-03T17:04:02.162Z,2.20
2022-08-03T17:07:07.792Z,2.40
2022-08-03T17:10:14.122Z,2.25
2022-08-03T17:13:21.694Z,2.30
2022-08-03T17:16:24.866Z,2.30
2022-08-03T17:19:29.358Z,2.15
2022-08-03T17:22:37.506Z,2.62
2022-08-03T17:26:01.503Z,2.30
2022-08-03T17:29:11.133Z,2.30
2022-08-03T17:32:21.174Z,2.30
2022-08-03T17:35:24.437Z,2.37
2022-08-03T17:38:39.375Z,2.75
2022-08-03T17:45:08.918Z,2.05
2022-08-03T17:48:18.883Z,2.50
2022-08-03T17:51:31.674Z,2.75
2022-08-03T17:55:55.229Z,2.85
2022-08-03T17:58:14.939Z,2.33
2022-08-03T18:02:00.385Z,3.03
2022-08-03T18:05:16.397Z,2.70
2022-08-03T18:08:28.644Z,2.50
2022-08-03T18:11:35.666Z,2.60
2022-08-03T18:14:57.563Z,2.67
2022-08-03T18:18:10.904Z,3.20
2022-08-03T18:21:16.786Z,2.47
2022-08-03T18:24:21.196Z,3.00
2022-08-03T18:27:42.740Z,3.20
2022-08-03T18:30:54.073Z,3.33
2022-08-03T18:34:19.727Z,3.40
2022-08-03T18:37:25.207Z,3.37
2022-08-03T18:40:28.746Z,3.65
2022-08-03T18:43:46.205Z,3.47
2022-08-03T18:46:49.339Z,3.55
2022-08-03T18:50:19.016Z,3.70
2022-08-03T18:54:03.011Z,3.67
2022-08-03T18:57:02.073Z,3.75
2022-08-03T19:00:12.445Z,4.00
2022-08-03T19:03:23.410Z,3.15
2022-08-03T19:06:27.852Z,3.83
2022-08-03T19:09:36.493Z,3.70
2022-08-03T19:12:44.479Z,3.65
2022-08-03T19:15:51.487Z,3.30
2022-08-03T19:18:54.673Z,4.57
2022-08-03T19:21:58.458Z,4.40
2022-08-03T19:25:02.363Z,3.70
2022-08-03T19:28:06.092Z,3.22
2022-08-03T19:31:10.645Z,3.72
2022-08-03T19:34:17.992Z,3.33
2022-08-03T19:37:22.104Z,3.28
2022-08-03T19:40:27.161Z,3.57
2022-08-03T19:43:52.654Z,3.30
2022-08-03T19:47:09.981Z,3.62
2022-08-03T19:50:15.561Z,3.40
2022-08-03T19:53:19.253Z,3.17
2022-08-03T19:56:24.071Z,3.13
2022-08-03T19:59:27.888Z,3.58
2022-08-03T20:02:30.927Z,3.78
2022-08-03T20:05:44.868Z,3.10
2022-08-03T20:08:54.311Z,3.47
2022-08-03T20:11:58.960Z,3.47
2022-08-03T20:15:01.876Z,3.60
2022-08-03T20:18:04.862Z,3.40
2022-08-03T20:24:37.339Z,3.83
2022-08-03T20:28:03.627Z,3.70
2022-08-03T20:31:09.860Z,3.62
2022-08-03T20:34:12.362Z,3.40
2022-08-03T20:37:20.399Z,3.20
2022-08-03T20:40:27.367Z,3.60
2022-08-03T20:43:30.730Z,3.63
2022-08-03T20:46:47.864Z,3.28
2022-08-03T20:49:57.004Z,3.30
2022-08-03T20:53:02.851Z,3.65
2022-08-03T20:56:09.127Z,3.20
2022-08-03T20:59:15.124Z,2.83
2022-08-03T21:02:29.649Z,3.28
2022-08-03T21:05:51.327Z,3.87
2022-08-03T21:09:00.191Z,3.90
2022-08-03T21:12:07.771Z,3.75
2022-08-03T21:13:06.033Z,2.33
2022-08-03T21:13:10.127Z,3.33
2022-08-03T21:15:59.573Z,3.70
2022-08-03T21:18:46.697Z,3.37
2022-08-03T21:21:50.292Z,3.60
2022-08-03T21:24:57.315Z,3.35
2022-08-03T21:28:01.017Z,3.75
2022-08-03T21:31:03.912Z,3.70
2022-08-03T21:34:07.238Z,3.92
2022-08-03T21:37:09.779Z,4.07
2022-08-03T21:40:17.711Z,3.62
2022-08-03T21:43:20.615Z,3.70
2022-08-03T21:46:23.938Z,4.10
2022-08-03T21:50:04.786Z,4.10
2022-08-03T21:52:52.115Z,3.67
2022-08-03T21:55:57.772Z,3.58
2022-08-03T21:59:05.423Z,4.00
2022-08-03T22:02:22.656Z,4.00
2022-08-03T22:05:42.475Z,3.95
2022-08-03T22:08:47.793Z,4.10
2022-08-03T22:11:54.139Z,4.22
2022-08-03T22:15:01.400Z,4.12
2022-08-03T22:18:05.411Z,4.27
2022-08-03T22:21:10.289Z,4.07
2022-08-03T22:24:13.648Z,3.95
2022-08-03T22:27:33.331Z,3.78
2022-08-03T22:30:37.082Z,4.20
2022-08-03T22:33:39.841Z,4.10
2022-08-03T22:36:42.960Z,4.03
2022-08-03T22:39:45.606Z,4.40
2022-08-03T22:42:52.058Z,4.47
2022-08-03T22:46:10.539Z,4.57
2022-08-03T22:49:15.540Z,4.33
2022-08-03T22:52:18.116Z,4.32
2022-08-03T22:55:24.878Z,4.70
2022-08-03T22:58:27.767Z,4.35
2022-08-03T23:01:33.168Z,4.72
2022-08-03T23:04:39.235Z,4.27
2022-08-03T23:07:42.891Z,4.35
2022-08-03T23:10:47.324Z,4.03
2022-08-03T23:13:54.236Z,3.90
2022-08-03T23:16:57.132Z,4.00
2022-08-03T23:20:06.550Z,4.53
2022-08-03T23:23:09.494Z,3.95
2022-08-03T23:26:15.751Z,4.00
2022-08-03T23:29:20.393Z,4.00
2022-08-03T23:32:25.849Z,3.85
2022-08-03T23:36:17.213Z,3.83
2022-08-03T23:39:09.869Z,4.20
2022-08-03T23:42:14.015Z,3.87
2022-08-03T23:45:20.602Z,4.05
2022-08-03T23:48:23.150Z,3.73
2022-08-03T23:51:47.795Z,3.53
2022-08-03T23:55:17.335Z,3.97
2022-08-03T23:58:42.223Z,3.97
